Time;durP1;ratioP1;P1;durP2;ratioP2;P2;SDS_P1;SDS_P2;PMS_P1;PMS_P2;Temp;Humidity;BMP_temperature;BMP_pressure;BME280_temperature;BME280_humidity;BME280_pressure;Samples;Min_cycle;Max_cycle;Signal;HPM_P1;HPM_P2
2021/10/02 00:35:22;;;;;;;0.30;0.30;;;;;;;11.20;90.86;100109.13;5002450;28;20093;-70
2021/10/02 00:46:01;;;;;;;0.30;0.30;;;;;;;11.21;91.34;100090.09;5041666;28;20076;-70
2021/10/02 00:48:26;;;;;;;0.20;0.20;;;;;;;11.20;91.26;100103.09;5041508;28;20052;-69
2021/10/02 00:50:57;;;;;;;0.25;0.25;;;;;;;11.31;90.72;100082.97;5041512;28;20409;-70
2021/10/02 00:53:23;;;;;;;0.30;0.30;;;;;;;11.31;90.63;100090.78;5041726;28;20056;-70
2021/10/02 00:55:50;;;;;;;0.20;0.20;;;;;;;11.26;90.91;100088.25;5041525;28;20026;-70
2021/10/02 00:58:16;;;;;;;0.20;0.20;;;;;;;11.24;90.77;100089.16;5041463;28;20069;-71
2021/10/02 01:00:45;;;;;;;0.30;0.30;;;;;;;11.50;89.11;100075.72;5041274;28;20021;-71
2021/10/02 01:03:41;;;;;;;0.25;0.25;;;;;;;11.49;89.11;100087.00;5041450;28;20025;-71
2021/10/02 01:06:25;;;;;;;0.30;0.30;;;;;;;11.44;89.55;100075.84;5040367;28;20093;-71
2021/10/02 01:09:03;;;;;;;0.28;0.28;;;;;;;11.50;89.10;100077.47;5041397;28;20536;-69
2021/10/02 01:11:52;;;;;;;0.20;0.20;;;;;;;11.42;89.33;100072.41;5041350;28;20045;-69
2021/10/02 01:14:30;;;;;;;0.30;0.30;;;;;;;11.36;89.93;100082.91;5041442;28;20040;-69
2021/10/02 01:17:02;;;;;;;0.20;0.20;;;;;;;11.49;89.23;100068.81;5056791;28;20059;-70
2021/10/02 01:19:27;;;;;;;0.30;0.30;;;;;;;11.37;90.21;100075.06;5104219;28;20472;-69
2021/10/02 01:22:14;;;;;;;0.30;0.30;;;;;;;11.32;90.34;100070.84;5104082;28;20050;-70
2021/10/02 01:24:58;;;;;;;0.30;0.30;;;;;;;11.30;90.70;100086.47;5103705;28;20110;-71
2021/10/02 01:27:33;;;;;;;0.30;0.30;;;;;;;11.37;90.31;100069.03;5103847;28;20047;-71
2021/10/02 01:30:07;;;;;;;0.30;0.30;;;;;;;11.35;90.46;100069.06;5085543;28;20040;-70
2021/10/02 01:32:45;;;;;;;0.30;0.30;;;;;;;11.37;90.16;100063.84;5103710;28;20047;-70
2021/10/02 01:48:43;;;;;;;15.30;2.15;;;;;;;11.54;88.03;100050.53;5103723;28;20035;-70
2021/10/02 01:51:11;;;;;;;0.20;0.20;;;;;;;11.76;86.71;100029.31;5103790;28;20042;-69
2021/10/02 01:53:39;;;;;;;0.20;0.20;;;;;;;11.62;87.28;100037.38;5085495;28;20058;-70
2021/10/02 01:56:07;;;;;;;0.30;0.30;;;;;;;11.60;87.02;100040.03;5103595;28;20024;-70
2021/10/02 01:58:34;;;;;;;0.30;0.30;;;;;;;11.60;87.18;100045.22;5103490;28;20024;-72
2021/10/02 02:01:03;;;;;;;0.30;0.30;;;;;;;11.64;86.86;100040.84;5103299;28;20055;-69
2021/10/02 02:03:30;;;;;;;0.30;0.30;;;;;;;11.47;87.83;100046.34;5103244;28;20460;-69
2021/10/02 02:05:56;;;;;;;0.63;0.63;;;;;;;11.44;88.36;100049.00;5103442;28;20088;-69
2021/10/02 02:08:27;;;;;;;0.30;0.30;;;;;;;11.42;88.25;100043.84;5103322;28;20345;-68
2021/10/02 02:10:55;;;;;;;0.20;0.20;;;;;;;11.42;88.15;100040.38;5103284;28;20497;-69
2021/10/02 02:13:23;;;;;;;0.30;0.30;;;;;;;11.45;87.83;100038.56;5085048;28;20013;-69
2021/10/02 02:15:51;;;;;;;0.50;0.50;;;;;;;11.42;87.56;100025.63;5103108;28;20460;-69
2021/10/02 02:18:21;;;;;;;0.20;0.20;;;;;;;11.47;87.59;100036.78;5103373;28;20302;-69
2021/10/02 02:21:07;;;;;;;0.30;0.30;;;;;;;11.40;87.96;100041.25;5103290;28;20107;-69
2021/10/02 02:23:34;;;;;;;0.40;0.40;;;;;;;11.51;86.82;100032.41;5103183;28;20020;-70
2021/10/02 02:26:03;;;;;;;0.25;0.25;;;;;;;11.46;87.35;100031.63;5103155;28;20048;-70
2021/10/02 02:28:29;;;;;;;0.20;0.20;;;;;;;11.57;86.64;100034.88;5103201;28;20020;-69
2021/10/02 02:30:55;;;;;;;0.30;0.30;;;;;;;11.58;86.26;100036.59;5103115;28;20024;-70
2021/10/02 02:33:20;;;;;;;0.30;0.30;;;;;;;11.47;86.84;100034.19;5103196;28;20118;-68
2021/10/02 02:35:46;;;;;;;0.20;0.20;;;;;;;11.52;86.73;100027.16;5118871;28;20028;-68
2021/10/02 02:38:13;;;;;;;0.45;0.45;;;;;;;11.56;86.13;100027.09;5103060;28;20020;-69
2021/10/02 02:40:39;;;;;;;0.30;0.30;;;;;;;11.50;86.74;100023.72;5102933;28;20024;-68
2021/10/02 02:43:07;;;;;;;0.30;0.30;;;;;;;11.70;85.56;100032.91;5102713;28;20020;-69
2021/10/02 02:45:33;;;;;;;1.92;1.85;;;;;;;11.67;85.66;100032.09;5102727;28;20051;-69
2021/10/02 02:48:07;;;;;;;0.20;0.20;;;;;;;11.47;86.55;100026.38;5103189;28;20111;-70
2021/10/02 02:50:42;;;;;;;0.30;0.30;;;;;;;11.56;86.19;100009.78;5103162;28;20121;-69
2021/10/02 02:53:17;;;;;;;0.20;0.20;;;;;;;11.48;86.76;100020.31;5106736;28;20103;-71
2021/10/02 02:55:51;;;;;;;0.30;0.30;;;;;;;11.53;86.25;100025.44;5106759;28;20072;-70
2021/10/02 02:58:19;;;;;;;0.30;0.30;;;;;;;11.56;86.11;100016.72;5106589;28;20032;-69
2021/10/02 03:00:57;;;;;;;0.30;0.30;;;;;;;11.53;85.94;100008.06;5106532;28;20028;-70
2021/10/02 03:03:27;;;;;;;0.20;0.20;;;;;;;11.54;86.93;100014.13;5106735;28;20394;-69
2021/10/02 03:05:57;;;;;;;3.33;1.83;;;;;;;11.62;85.67;100007.06;5106825;28;20024;-69
2021/10/02 03:08:24;;;;;;;0.28;0.28;;;;;;;11.75;84.79;100007.69;5089048;28;20039;-68
2021/10/02 03:10:59;;;;;;;0.20;0.20;;;;;;;11.63;85.93;99994.88;5106531;28;20020;-67
2021/10/02 03:13:26;;;;;;;0.30;0.30;;;;;;;11.65;85.54;100000.94;5106420;28;20012;-68
2021/10/02 03:15:52;;;;;;;0.20;0.20;;;;;;;11.58;85.84;100009.75;5106404;28;20031;-69
2021/10/02 03:18:19;;;;;;;0.30;0.30;;;;;;;11.64;85.46;100000.09;5088195;28;20030;-69
2021/10/02 03:20:49;;;;;;;1.48;0.88;;;;;;;11.60;85.56;99987.16;5106364;28;20035;-70
2021/10/02 03:23:15;;;;;;;7.28;2.92;;;;;;;11.52;86.31;99995.97;5106280;28;20445;-67
2021/10/02 03:25:40;;;;;;;5.47;3.00;;;;;;;11.67;85.23;99995.69;5106002;28;20516;-69
2021/10/02 03:28:06;;;;;;;3.17;1.58;;;;;;;11.60;85.58;99993.22;5106316;28;20069;-69
2021/10/02 03:30:32;;;;;;;3.58;1.95;;;;;;;11.77;84.16;99999.84;5106065;28;20026;-68
2021/10/02 03:32:58;;;;;;;9.57;2.90;;;;;;;11.62;84.68;99999.25;5106065;28;20031;-70
2021/10/02 03:35:24;;;;;;;2.97;1.00;;;;;;;11.78;84.36;99989.41;5106042;28;20054;-69
2021/10/02 03:37:50;;;;;;;3.45;2.20;;;;;;;11.77;84.35;100002.44;5105984;28;20024;-69
2021/10/02 03:40:20;;;;;;;4.28;2.53;;;;;;;11.59;84.97;99994.13;5106177;28;20157;-68
2021/10/02 03:42:48;;;;;;;4.93;2.03;;;;;;;11.52;85.81;99988.16;5105897;28;20016;-68
2021/10/02 03:45:14;;;;;;;4.47;2.67;;;;;;;11.45;85.87;99989.19;5105964;28;20073;-70
2021/10/02 03:47:40;;;;;;;3.28;2.63;;;;;;;11.59;85.04;100001.91;5105865;28;20537;-68
2021/10/02 03:50:07;;;;;;;8.73;2.50;;;;;;;11.58;84.79;100005.38;5106058;28;20032;-69
2021/10/02 03:52:32;;;;;;;3.55;2.03;;;;;;;11.62;85.13;100001.00;5106005;28;20028;-69
2021/10/02 03:54:58;;;;;;;5.07;2.53;;;;;;;11.55;85.57;99995.03;5105592;28;20444;-68
2021/10/02 03:57:23;;;;;;;11.38;3.22;;;;;;;11.48;85.63;99999.53;5105708;28;20122;-67
2021/10/02 03:59:49;;;;;;;4.85;2.22;;;;;;;11.60;85.28;99993.22;5087302;28;20019;-68
2021/10/02 04:02:14;;;;;;;3.42;2.15;;;;;;;11.69;84.23;99992.19;5104330;28;20495;-68
2021/10/02 04:04:39;;;;;;;3.67;1.63;;;;;;;11.71;84.33;99993.00;5105138;28;20027;-69
2021/10/02 04:07:05;;;;;;;4.40;3.00;;;;;;;11.61;84.60;99997.53;5105585;28;20016;-68
2021/10/02 04:09:30;;;;;;;4.47;1.92;;;;;;;11.68;84.49;100005.22;5105352;28;20111;-67
2021/10/02 04:11:56;;;;;;;4.75;2.45;;;;;;;11.59;84.89;100001.06;5105372;28;20027;-69
2021/10/02 04:14:21;;;;;;;7.65;2.72;;;;;;;11.44;85.87;99997.00;5105272;28;20100;-69
2021/10/02 04:16:47;;;;;;;3.60;2.45;;;;;;;11.38;86.20;100004.03;5105096;28;20101;-68
2021/10/02 04:19:12;;;;;;;4.03;2.20;;;;;;;11.48;86.04;99996.06;5105431;28;20085;-68
2021/10/02 04:21:38;;;;;;;4.22;2.63;;;;;;;11.43;85.92;100010.88;5105143;28;20080;-68
2021/10/02 04:24:04;;;;;;;6.22;3.22;;;;;;;11.34;86.58;99993.72;5105074;28;20061;-69
2021/10/02 04:26:29;;;;;;;5.43;2.35;;;;;;;11.56;85.41;100003.72;5104902;28;20048;-70
2021/10/02 04:28:55;;;;;;;9.93;2.72;;;;;;;11.49;85.49;100009.03;5105192;28;20051;-69
2021/10/02 04:31:20;;;;;;;8.55;2.83;;;;;;;11.43;85.83;100005.69;5104894;28;20028;-70
2021/10/02 04:33:45;;;;;;;5.80;3.40;;;;;;;11.40;86.06;100007.47;5104925;28;20020;-70
2021/10/02 04:36:12;;;;;;;6.70;3.55;;;;;;;11.29;86.79;100014.59;5104977;28;20020;-69
2021/10/02 04:38:38;;;;;;;3.45;1.88;;;;;;;11.43;86.07;100013.47;5104913;28;20019;-68
2021/10/02 04:41:03;;;;;;;4.80;2.72;;;;;;;11.43;85.75;100003.94;5104685;28;20119;-68
2021/10/02 04:43:31;;;;;;;7.60;3.90;;;;;;;11.37;86.13;100012.69;5104624;28;20063;-70
2021/10/02 04:45:56;;;;;;;7.57;3.42;;;;;;;11.33;86.36;100018.84;5104586;28;20031;-69
2021/10/02 04:48:24;;;;;;;4.15;2.78;;;;;;;11.36;86.17;100004.94;5104749;28;20105;-72
2021/10/02 04:50:50;;;;;;;3.53;1.35;;;;;;;11.50;85.70;99997.72;5086322;28;20034;-69
2021/10/02 04:53:15;;;;;;;8.48;2.92;;;;;;;11.36;86.40;100010.13;5104349;28;20040;-69
2021/10/02 04:55:42;;;;;;;4.38;2.97;;;;;;;11.38;86.25;100022.22;5104618;28;20094;-70
2021/10/02 04:58:07;;;;;;;4.55;2.13;;;;;;;11.36;86.42;100011.00;5104480;28;20038;-70
2021/10/02 05:00:33;;;;;;;6.18;2.35;;;;;;;11.40;86.31;100007.47;5086084;28;20043;-70
2021/10/02 05:03:01;;;;;;;7.05;3.42;;;;;;;11.26;86.66;100007.69;5104229;28;20016;-72
2021/10/02 05:05:27;;;;;;;5.18;3.03;;;;;;;11.25;87.20;100008.59;5104268;28;20035;-72
2021/10/02 05:07:52;;;;;;;4.60;1.77;;;;;;;11.36;86.43;100004.94;5104162;28;20020;-71
2021/10/02 05:10:17;;;;;;;2.50;1.65;;;;;;;11.40;86.62;100010.06;5104176;28;20028;-72
2021/10/02 05:12:43;;;;;;;3.40;2.17;;;;;;;11.47;85.90;100004.75;5104306;28;20099;-68
2021/10/02 05:15:08;;;;;;;11.73;4.28;;;;;;;11.24;87.13;100000.81;5103728;28;20078;-69
2021/10/02 05:17:34;;;;;;;5.90;3.60;;;;;;;11.23;87.46;100012.09;5104105;28;20028;-69
2021/10/02 05:19:59;;;;;;;7.68;3.20;;;;;;;11.38;86.69;100008.38;5104016;28;20036;-70
2021/10/02 05:22:25;;;;;;;4.80;2.35;;;;;;;11.46;85.71;100011.69;5104214;28;20035;-70
2021/10/02 05:24:50;;;;;;;4.43;3.42;;;;;;;11.32;86.46;100017.13;5103824;28;20468;-70
2021/10/02 05:27:15;;;;;;;3.50;2.47;;;;;;;11.48;86.10;100017.72;5103997;28;20056;-70
2021/10/02 05:29:41;;;;;;;5.55;3.90;;;;;;;11.37;86.20;100009.25;5085822;28;20106;-69
2021/10/02 05:32:09;;;;;;;4.10;1.80;;;;;;;11.43;86.21;100011.75;5103748;28;20577;-68
2021/10/02 05:34:34;;;;;;;4.72;3.35;;;;;;;11.32;86.45;100018.88;5103821;28;20426;-71
2021/10/02 05:37:00;;;;;;;9.65;4.18;;;;;;;11.30;86.24;100015.44;5085643;28;20103;-69
2021/10/02 05:39:26;;;;;;;7.05;4.57;;;;;;;11.30;86.13;100021.50;5103833;28;20020;-70
2021/10/02 05:41:52;;;;;;;6.20;1.92;;;;;;;11.46;85.49;100009.09;5103673;28;20024;-69
2021/10/02 05:44:17;;;;;;;2.95;2.65;;;;;;;11.38;86.03;100024.81;5103848;28;20048;-70
2021/10/02 05:46:43;;;;;;;6.68;3.15;;;;;;;11.32;86.11;100006.75;5103522;28;20028;-69
2021/10/02 05:49:08;;;;;;;9.43;3.80;;;;;;;11.38;85.63;100018.75;5103768;28;20020;-70
2021/10/02 05:51:33;;;;;;;9.35;3.50;;;;;;;11.40;86.12;100012.66;5103733;28;20027;-68
2021/10/02 05:53:59;;;;;;;5.30;4.13;;;;;;;11.27;86.46;100012.03;5103462;28;20034;-69
2021/10/02 05:56:24;;;;;;;6.20;3.55;;;;;;;11.32;86.30;100008.47;5103609;28;20016;-69
2021/10/02 05:58:51;;;;;;;7.53;4.10;;;;;;;11.24;87.36;100011.22;5085451;28;20054;-70
2021/10/02 06:01:16;;;;;;;6.80;4.43;;;;;;;11.46;86.25;100016.00;5103533;28;20020;-69
2021/10/02 06:03:41;;;;;;;4.25;2.22;;;;;;;11.52;85.66;100021.09;5103271;28;20024;-69
2021/10/02 06:06:07;;;;;;;6.40;3.40;;;;;;;11.49;86.19;100018.56;5103552;28;20028;-70
2021/10/02 06:08:32;;;;;;;9.57;4.57;;;;;;;11.36;86.02;100010.13;5103579;28;20023;-70
2021/10/02 06:10:58;;;;;;;6.88;4.18;;;;;;;11.32;86.99;100014.53;5103498;28;20027;-70
2021/10/02 06:13:23;;;;;;;3.40;2.30;;;;;;;11.55;86.03;100025.41;5103477;28;20016;-68
2021/10/02 06:15:49;;;;;;;13.07;4.55;;;;;;;11.59;85.57;100014.91;5103273;28;20035;-69
2021/10/02 06:18:14;;;;;;;11.13;4.03;;;;;;;11.60;85.46;100014.03;5085102;28;20040;-71
2021/10/02 06:20:40;;;;;;;3.78;2.35;;;;;;;11.77;84.64;100024.09;5103228;28;20076;-69
2021/10/02 06:23:05;;;;;;;3.72;2.45;;;;;;;11.55;85.35;100010.66;5103356;28;20051;-70
2021/10/02 06:25:31;;;;;;;6.90;4.43;;;;;;;11.46;85.77;100016.88;5103240;28;20036;-70
2021/10/02 06:27:57;;;;;;;3.70;2.75;;;;;;;11.63;85.05;100028.69;5107639;28;20164;-72
2021/10/02 06:30:22;;;;;;;6.50;3.95;;;;;;;11.35;86.54;100029.22;5107454;28;20049;-73
2021/10/02 06:32:47;;;;;;;7.55;5.13;;;;;;;11.21;87.49;100029.47;5107032;28;20530;-71
2021/10/02 06:35:13;;;;;;;8.27;3.65;;;;;;;11.26;87.71;100043.25;5107192;28;20042;-71
2021/10/02 06:37:39;;;;;;;5.22;3.72;;;;;;;11.35;87.41;100044.81;5107357;28;20020;-70
2021/10/02 06:40:07;;;;;;;9.32;5.38;;;;;;;11.15;88.05;100033.00;5107122;28;20031;-70
2021/10/02 06:42:32;;;;;;;6.75;4.32;;;;;;;11.17;88.37;100044.22;5107342;28;20024;-72
2021/10/02 06:44:57;;;;;;;7.05;3.20;;;;;;;11.14;88.40;100037.34;5107216;28;20316;-71
2021/10/02 06:47:23;;;;;;;8.10;5.63;;;;;;;11.16;88.21;100045.13;5106983;28;20020;-72
2021/10/02 06:49:49;;;;;;;14.95;7.13;;;;;;;10.97;89.02;100034.19;5107209;28;20024;-73
2021/10/02 06:52:15;;;;;;;8.02;4.65;;;;;;;11.06;89.03;100049.63;5106795;28;20016;-75
2021/10/02 06:54:40;;;;;;;9.15;3.97;;;;;;;11.13;88.64;100040.81;5106949;28;20050;-75
2021/10/02 06:57:07;;;;;;;11.75;6.20;;;;;;;11.06;89.09;100048.75;5106769;28;20023;-75
2021/10/02 06:59:33;;;;;;;10.32;5.40;;;;;;;11.12;88.64;100036.53;5106626;28;20020;-72
2021/10/02 07:01:59;;;;;;;10.40;3.38;;;;;;;10.99;89.49;100035.03;5106459;28;20028;-75
2021/10/02 07:04:25;;;;;;;6.53;4.40;;;;;;;11.05;89.25;100053.09;5106561;28;20024;-70
2021/10/02 07:06:50;;;;;;;4.75;3.40;;;;;;;11.13;89.19;100055.56;5106539;28;20046;-69
2021/10/02 07:09:15;;;;;;;6.43;4.85;;;;;;;10.86;90.13;100048.19;5106394;28;20083;-72
2021/10/02 07:11:41;;;;;;;9.60;4.88;;;;;;;10.92;90.15;100057.63;5106627;28;20077;-75
2021/10/02 07:14:06;;;;;;;16.33;8.88;;;;;;;11.01;89.15;100057.47;5106300;28;20032;-73
2021/10/02 07:16:32;;;;;;;5.28;3.25;;;;;;;10.96;89.86;100054.09;5106142;28;20020;-78
2021/10/02 07:18:57;;;;;;;11.30;7.45;;;;;;;10.93;89.75;100046.34;5106350;28;20028;-74
2021/10/02 07:21:22;;;;;;;12.00;8.02;;;;;;;10.83;90.55;100043.03;5088055;28;20057;-77
2021/10/02 07:23:48;;;;;;;9.00;4.95;;;;;;;10.82;90.80;100059.50;5106393;28;20464;-72
2021/10/02 07:26:13;;;;;;;15.15;7.53;;;;;;;11.00;90.11;100052.31;5105894;28;20064;-72
2021/10/02 07:28:38;;;;;;;6.22;4.30;;;;;;;11.05;89.86;100055.69;5105894;28;20023;-70
2021/10/02 07:31:04;;;;;;;13.13;6.97;;;;;;;11.01;89.87;100057.47;5105778;28;20016;-70
2021/10/02 07:33:29;;;;;;;14.65;8.77;;;;;;;10.87;90.76;100056.84;5106039;28;20012;-71
2021/10/02 07:35:55;;;;;;;15.90;8.43;;;;;;;10.88;91.20;100067.19;5087828;28;20028;-69
2021/10/02 07:38:20;;;;;;;8.05;4.25;;;;;;;11.05;90.29;100060.91;5105602;28;20026;-69
2021/10/02 07:40:46;;;;;;;5.82;3.17;;;;;;;11.07;89.72;100056.50;5105886;28;20075;-70
2021/10/02 07:43:15;;;;;;;14.52;7.75;;;;;;;10.84;91.19;100060.34;5105649;28;20035;-70
2021/10/02 07:45:42;;;;;;;4.63;3.53;;;;;;;11.02;90.66;100059.19;5087591;28;20015;-69
2021/10/02 07:48:09;;;;;;;12.73;3.55;;;;;;;11.03;90.29;100050.53;5105497;28;20084;-70
2021/10/02 07:50:35;;;;;;;19.50;7.13;;;;;;;10.96;90.87;100055.84;5105709;28;20335;-70
2021/10/02 07:53:01;;;;;;;10.75;5.93;;;;;;;10.86;91.21;100057.72;5087423;28;20340;-69
2021/10/02 07:55:27;;;;;;;6.95;4.70;;;;;;;11.02;90.94;100063.53;5105514;28;20079;-69
2021/10/02 07:57:53;;;;;;;8.23;4.72;;;;;;;10.83;91.97;100061.22;5087158;28;20035;-68
2021/10/02 08:00:20;;;;;;;15.38;9.82;;;;;;;10.72;92.25;100055.34;5105585;28;20024;-69
2021/10/02 08:02:49;;;;;;;7.28;4.53;;;;;;;11.00;91.13;100060.09;5105332;28;20032;-69
2021/10/02 08:05:15;;;;;;;8.07;4.35;;;;;;;10.98;91.06;100054.06;5105188;28;20023;-68
2021/10/02 08:07:43;;;;;;;14.02;8.27;;;;;;;10.90;91.66;100062.84;5105311;28;20028;-67
2021/10/02 08:10:10;;;;;;;7.57;5.55;;;;;;;11.03;90.90;100049.66;5105199;28;20106;-66
2021/10/02 08:12:36;;;;;;;8.15;6.45;;;;;;;10.97;90.93;100058.44;5105319;28;20047;-67
2021/10/02 08:15:01;;;;;;;7.85;4.43;;;;;;;11.07;90.85;100066.91;5104873;28;20020;-67
2021/10/02 08:17:28;;;;;;;14.35;8.63;;;;;;;10.93;91.18;100058.50;5104882;28;20026;-68
2021/10/02 08:19:59;;;;;;;13.25;6.30;;;;;;;10.87;91.82;100059.44;5105186;28;20119;-66
2021/10/02 08:22:26;;;;;;;17.08;10.75;;;;;;;10.86;92.17;100060.31;5105397;28;20035;-68
2021/10/02 08:24:53;;;;;;;10.68;6.38;;;;;;;10.95;91.76;100062.78;5104769;28;20028;-69
2021/10/02 08:27:20;;;;;;;6.25;2.53;;;;;;;11.18;91.41;100063.28;5104821;28;20043;-68
2021/10/02 08:29:47;;;;;;;0.20;0.20;;;;;;;10.99;91.55;100066.19;5105015;28;20049;-69
2021/10/02 08:32:14;;;;;;;2.47;2.30;;;;;;;10.81;92.57;100056.94;5104690;28;20012;-68
2021/10/02 08:34:40;;;;;;;0.20;0.20;;;;;;;10.71;93.59;100057.06;5105037;28;20020;-70
2021/10/02 08:37:05;;;;;;;0.30;0.30;;;;;;;10.96;92.16;100042.88;5104805;28;20046;-69
2021/10/02 08:39:31;;;;;;;0.22;0.22;;;;;;;10.94;92.82;100055.88;5104722;28;20023;-69
2021/10/02 08:41:56;;;;;;;0.20;0.20;;;;;;;10.85;92.75;100048.19;5104928;28;20024;-69
2021/10/02 08:44:23;;;;;;;0.30;0.30;;;;;;;10.99;92.26;100048.00;5104703;28;20383;-70
2021/10/02 08:46:50;;;;;;;0.20;0.20;;;;;;;10.90;92.67;100055.06;5104419;28;20126;-68
2021/10/02 08:49:28;;;;;;;0.20;0.20;;;;;;;10.88;93.02;100056.81;5103810;28;20069;-67
2021/10/02 08:51:54;;;;;;;0.30;0.30;;;;;;;11.04;92.28;100053.97;5104758;28;20024;-67
2021/10/02 08:54:21;;;;;;;0.30;0.30;;;;;;;11.08;91.64;100055.66;5104414;28;20332;-67
2021/10/02 08:56:48;;;;;;;0.30;0.30;;;;;;;10.93;92.80;100053.31;5086200;28;20020;-67
2021/10/02 08:59:14;;;;;;;0.20;0.20;;;;;;;10.87;93.21;100057.69;5104402;28;20024;-68
2021/10/02 09:01:41;;;;;;;0.30;0.30;;;;;;;10.86;93.27;100055.13;5104213;28;20024;-68
2021/10/02 09:04:07;;;;;;;0.20;0.20;;;;;;;11.05;92.70;100049.63;5104307;28;20024;-68
2021/10/02 09:06:36;;;;;;;0.47;0.47;;;;;;;10.91;93.48;100056.75;5104258;28;20020;-67
2021/10/02 09:09:03;;;;;;;0.20;0.20;;;;;;;11.02;92.83;100051.41;5104373;28;20019;-69
2021/10/02 09:11:30;;;;;;;0.40;0.40;;;;;;;10.88;93.75;100049.03;5104255;28;20031;-68
2021/10/02 09:13:55;;;;;;;0.30;0.30;;;;;;;10.88;93.97;100043.81;5104154;28;20022;-69
2021/10/02 09:16:21;;;;;;;0.30;0.30;;;;;;;11.09;92.88;100036.56;5104175;28;20110;-70
2021/10/02 09:18:46;;;;;;;0.20;0.20;;;;;;;11.22;92.15;100039.81;5104196;28;20054;-69
2021/10/02 09:21:12;;;;;;;0.55;0.55;;;;;;;11.09;92.92;100039.16;5104373;28;20089;-69
2021/10/02 09:23:47;;;;;;;0.82;0.82;;;;;;;11.13;92.62;100042.59;5103834;28;20435;-69
2021/10/02 09:26:13;;;;;;;0.20;0.20;;;;;;;11.14;92.90;100044.28;5103743;28;20119;-69
2021/10/02 09:28:42;;;;;;;0.20;0.20;;;;;;;11.31;92.07;100049.19;5104006;28;20028;-68
2021/10/02 09:31:09;;;;;;;0.30;0.30;;;;;;;11.08;92.87;100047.84;5103720;28;20056;-68
2021/10/02 09:33:35;;;;;;;0.20;0.20;;;;;;;10.97;93.39;100034.19;5103879;28;20008;-66
2021/10/02 09:36:01;;;;;;;0.43;0.43;;;;;;;10.91;94.19;100046.38;5103961;28;20020;-68
2021/10/02 09:38:30;;;;;;;0.30;0.30;;;;;;;10.96;94.38;100045.47;5103776;28;20031;-68
2021/10/02 09:40:58;;;;;;;0.30;0.30;;;;;;;11.07;93.65;100035.72;5103752;28;20020;-66
2021/10/02 09:43:24;;;;;;;0.30;0.30;;;;;;;11.01;94.37;100041.03;5103694;28;20020;-64
2021/10/02 09:45:51;;;;;;;0.20;0.20;;;;;;;11.00;94.47;100036.72;5103778;28;20031;-67
2021/10/02 09:48:28;;;;;;;0.28;0.28;;;;;;;11.09;93.76;100031.38;5103638;28;20024;-64
2021/10/02 09:50:55;;;;;;;0.20;0.20;;;;;;;11.14;93.79;100024.38;5104001;28;20028;-68
2021/10/02 09:53:20;;;;;;;0.30;0.30;;;;;;;11.03;94.51;100026.28;5103511;28;20042;-67
2021/10/02 09:55:48;;;;;;;1.70;1.60;;;;;;;11.03;94.65;100018.50;5103624;28;20057;-68
2021/10/02 09:58:31;;;;;;;0.20;0.20;;;;;;;11.05;94.31;100018.47;5103716;28;20395;-68
2021/10/02 10:00:57;;;;;;;1.52;1.48;;;;;;;11.01;94.71;100015.06;5103410;28;20020;-66
2021/10/02 10:03:23;;;;;;;0.20;0.20;;;;;;;11.08;94.26;100027.06;5103212;28;20100;-67
2021/10/02 10:05:54;;;;;;;0.30;0.30;;;;;;;11.14;93.69;100020.91;5103305;28;20067;-67
2021/10/02 10:08:28;;;;;;;0.20;0.20;;;;;;;11.14;93.80;100013.97;5103580;28;20024;-66
2021/10/02 10:11:08;;;;;;;0.30;0.30;;;;;;;11.12;93.78;100023.53;5103569;28;20032;-67
2021/10/02 10:13:33;;;;;;;0.30;0.30;;;;;;;11.20;93.27;100020.78;5103357;28;20024;-65
2021/10/02 10:15:59;;;;;;;0.30;0.30;;;;;;;11.25;93.11;100021.59;5103131;28;20043;-65
2021/10/02 10:18:30;;;;;;;0.30;0.30;;;;;;;11.07;93.64;100009.75;5103360;28;20067;-64
2021/10/02 10:20:58;;;;;;;0.20;0.20;;;;;;;11.25;93.22;100028.50;5103252;28;20027;-65
2021/10/02 10:23:29;;;;;;;0.22;0.22;;;;;;;11.08;93.39;100019.28;5103521;28;20035;-66
2021/10/02 10:25:58;;;;;;;0.30;0.30;;;;;;;11.05;94.22;100016.72;5103093;28;20048;-65
2021/10/02 10:28:26;;;;;;;0.30;0.30;;;;;;;11.09;94.20;100020.97;5103273;28;20088;-66
2021/10/02 10:30:53;;;;;;;0.22;0.22;;;;;;;11.08;93.95;100010.63;5103103;28;20020;-70
2021/10/02 10:33:20;;;;;;;0.30;0.30;;;;;;;11.15;94.16;100020.88;5103166;28;20020;-68
2021/10/02 10:35:53;;;;;;;0.40;0.40;;;;;;;11.23;93.08;100015.53;5103235;28;20055;-68
2021/10/02 10:38:22;;;;;;;0.20;0.20;;;;;;;11.47;91.99;100018.59;5103064;28;20024;-68
2021/10/02 10:40:49;;;;;;;0.20;0.20;;;;;;;11.28;93.04;100010.25;5102818;28;20034;-69
2021/10/02 10:43:14;;;;;;;0.20;0.20;;;;;;;11.29;93.05;100009.41;5103023;28;20024;-69
2021/10/02 10:45:40;;;;;;;0.30;0.30;;;;;;;11.21;93.10;100009.53;5102951;28;20072;-69
2021/10/02 10:48:07;;;;;;;0.30;0.30;;;;;;;11.21;93.88;100006.06;5102804;28;20028;-69
2021/10/02 10:50:34;;;;;;;0.77;0.77;;;;;;;11.37;92.52;100012.69;5102744;28;20426;-70
2021/10/02 10:53:01;;;;;;;0.20;0.20;;;;;;;11.26;93.33;100002.50;5103076;28;20149;-69
2021/10/02 10:55:27;;;;;;;0.28;0.28;;;;;;;11.31;93.14;100009.38;5102944;28;20098;-69
2021/10/02 10:57:55;;;;;;;5.25;3.92;;;;;;;11.42;93.08;99985.78;5103045;28;20032;-69
2021/10/02 11:00:39;;;;;;;0.30;0.30;;;;;;;11.31;93.30;100007.59;5103018;28;20027;-69
2021/10/02 11:03:10;;;;;;;0.28;0.28;;;;;;;11.37;93.12;100006.66;5102766;28;20031;-69
2021/10/02 11:05:35;;;;;;;0.30;0.30;;;;;;;11.46;92.52;100008.22;5102938;28;20020;-71
2021/10/02 11:08:07;;;;;;;7.97;3.90;;;;;;;11.25;93.78;100006.00;5102882;28;20082;-71
2021/10/02 11:10:44;;;;;;;0.40;0.40;;;;;;;11.44;93.13;99997.84;5103138;28;20054;-70
2021/10/02 11:13:34;;;;;;;0.35;0.35;;;;;;;11.25;94.17;100010.31;5105518;28;20474;-68
2021/10/02 11:16:39;;;;;;;0.30;0.30;;;;;;;11.41;93.40;100010.91;5095366;28;20507;-67
2021/10/02 11:19:28;;;;;;;0.30;0.30;;;;;;;11.35;93.45;100006.69;5106356;28;20034;-68
2021/10/02 11:23:03;;;;;;;0.28;0.28;;;;;;;11.35;93.67;100008.41;5106315;28;20020;-68
2021/10/02 11:25:29;;;;;;;0.30;0.30;;;;;;;11.39;93.69;100004.88;5023315;28;20054;-69
2021/10/02 11:27:54;;;;;;;0.93;0.93;;;;;;;11.36;93.34;99999.72;5023437;28;20113;-70
2021/10/02 11:30:21;;;;;;;0.20;0.20;;;;;;;11.38;93.49;99998.84;5023293;28;20446;-69
2021/10/02 11:32:47;;;;;;;0.30;0.30;;;;;;;11.38;92.64;99980.63;5023199;28;20065;-68
2021/10/02 11:35:14;;;;;;;0.20;0.20;;;;;;;11.46;93.12;99996.09;5023315;28;20086;-68
2021/10/02 11:37:42;;;;;;;0.20;0.20;;;;;;;11.49;93.02;99996.03;5023371;28;20109;-68
2021/10/02 11:40:32;;;;;;;0.20;0.20;;;;;;;11.55;92.44;99997.66;5023111;28;20089;-70
2021/10/02 11:43:13;;;;;;;0.30;0.30;;;;;;;11.49;93.13;99996.03;5006512;28;20033;-69
2021/10/02 11:45:40;;;;;;;0.43;0.43;;;;;;;11.42;93.29;99980.59;5023018;28;20033;-72
2021/10/02 11:48:12;;;;;;;0.30;0.30;;;;;;;11.46;93.81;99990.88;5022959;28;20040;-66
2021/10/02 11:50:38;;;;;;;0.30;0.30;;;;;;;11.52;93.70;99984.72;5022946;28;20053;-67
2021/10/02 11:53:03;;;;;;;0.30;0.30;;;;;;;11.61;92.78;99992.31;5023088;28;20022;-68
2021/10/02 11:55:40;;;;;;;0.40;0.40;;;;;;;11.62;93.00;99991.47;5045252;28;20054;-68
2021/10/02 11:58:09;;;;;;;0.30;0.30;;;;;;;11.57;93.47;99990.69;5105545;28;20032;-68
2021/10/02 12:00:38;;;;;;;0.30;0.30;;;;;;;11.53;93.64;99992.47;5105552;28;20032;-68
2021/10/02 12:03:05;;;;;;;0.50;0.50;;;;;;;11.55;93.97;99982.03;5105297;28;20012;-70
2021/10/02 12:05:31;;;;;;;0.25;0.25;;;;;;;11.59;93.41;99988.91;5105379;28;20046;-71
2021/10/02 12:07:57;;;;;;;0.50;0.50;;;;;;;11.61;92.99;99984.53;5105275;28;20028;-69
2021/10/02 12:10:22;;;;;;;1.83;1.75;;;;;;;11.50;94.42;99976.09;5105044;28;20123;-68
2021/10/02 12:12:48;;;;;;;0.57;0.57;;;;;;;11.73;92.80;99979.97;5105066;28;20035;-69
2021/10/02 12:15:34;;;;;;;0.30;0.30;;;;;;;11.68;93.14;99979.22;5105178;28;20084;-68
2021/10/02 12:18:00;;;;;;;0.20;0.20;;;;;;;11.62;93.47;99970.66;5104973;28;20028;-66
2021/10/02 12:20:36;;;;;;;0.30;0.30;;;;;;;11.64;93.55;99979.28;5105349;28;20047;-70
2021/10/02 12:23:07;;;;;;;0.30;0.30;;;;;;;11.75;93.12;99979.06;5104456;28;20111;-70
2021/10/02 12:25:32;;;;;;;0.73;0.60;;;;;;;11.75;93.59;99983.41;5104622;28;20103;-69
2021/10/02 12:27:58;;;;;;;0.35;0.35;;;;;;;11.85;92.42;99969.31;5104865;28;20092;-70